createdAt,value
2018-07-07T00:00:21.644Z,65.80
2018-07-07T00:02:50.058Z,66.40
2018-07-07T00:05:18.409Z,66.30
2018-07-07T00:07:46.752Z,66.50
2018-07-07T00:10:15.712Z,67.50
2018-07-07T00:12:44.384Z,66.80
2018-07-07T00:15:15.970Z,67.10
2018-07-07T00:17:44.954Z,67.30
2018-07-07T00:20:13.462Z,67.60
2018-07-07T00:22:41.845Z,67.50
2018-07-07T00:25:13.946Z,67.60
2018-07-07T00:30:10.749Z,68.60
2018-07-07T00:32:39.185Z,67.90
2018-07-07T00:35:07.613Z,68.40
2018-07-07T00:37:35.984Z,68.40
2018-07-07T00:40:04.921Z,68.50
2018-07-07T00:42:33.430Z,68.20
2018-07-07T00:45:01.830Z,68.40
2018-07-07T00:47:30.369Z,68.40
2018-07-07T00:49:58.798Z,69.00
2018-07-07T00:52:27.712Z,68.80
2018-07-07T00:54:56.096Z,68.10
2018-07-07T00:57:24.850Z,68.10
2018-07-07T00:59:53.358Z,67.80
2018-07-07T01:02:22.745Z,68.30
2018-07-07T01:04:52.501Z,68.40
2018-07-07T01:07:21.373Z,68.10
2018-07-07T01:09:49.773Z,68.20
2018-07-07T01:12:18.362Z,67.80
2018-07-07T01:14:47.127Z,67.50
2018-07-07T01:17:15.516Z,67.10
2018-07-07T01:19:43.943Z,66.70
2018-07-07T01:22:13.258Z,66.60
2018-07-07T01:24:42.191Z,66.10
2018-07-07T01:27:10.673Z,65.80
2018-07-07T01:29:39.913Z,65.80
2018-07-07T01:32:08.319Z,65.90
2018-07-07T01:34:36.667Z,65.90
2018-07-07T01:37:05.301Z,65.60
2018-07-07T01:42:01.875Z,66.00
2018-07-07T01:44:31.494Z,66.20
2018-07-07T01:49:28.032Z,66.40
2018-07-07T01:51:56.389Z,66.60
2018-07-07T01:54:24.736Z,66.20
2018-07-07T01:59:22.289Z,66.30
2018-07-07T02:01:50.709Z,66.40
2018-07-07T02:04:19.835Z,66.50
2018-07-07T02:06:48.231Z,66.60
2018-07-07T02:09:16.602Z,67.00
2018-07-07T02:11:44.961Z,67.20
2018-07-07T02:14:13.626Z,67.50
2018-07-07T02:19:10.056Z,67.70
2018-07-07T02:21:38.416Z,67.80
2018-07-07T02:24:06.873Z,67.60
2018-07-07T02:26:35.254Z,67.60
2018-07-07T02:29:03.670Z,67.80
2018-07-07T02:31:32.046Z,67.90
2018-07-07T02:34:00.363Z,68.50
2018-07-07T02:36:28.727Z,69.00
2018-07-07T02:38:57.050Z,69.40
2018-07-07T02:41:25.475Z,69.80
2018-07-07T02:43:53.824Z,69.70
2018-07-07T02:46:22.342Z,70.40
2018-07-07T02:48:50.658Z,70.50
2018-07-07T02:51:19.030Z,70.60
2018-07-07T02:53:47.479Z,71.00
2018-07-07T02:58:43.958Z,71.40
2018-07-07T03:01:12.538Z,71.30
2018-07-07T03:03:40.918Z,71.60
2018-07-07T03:06:09.295Z,71.60
2018-07-07T03:08:37.644Z,70.70
2018-07-07T03:11:06.060Z,71.10
2018-07-07T03:13:34.441Z,71.10
2018-07-07T03:16:02.866Z,71.00
2018-07-07T03:18:31.198Z,71.40
2018-07-07T03:20:59.591Z,71.50
2018-07-07T03:23:27.986Z,71.70
2018-07-07T03:25:56.316Z,72.00
2018-07-07T03:28:24.686Z,72.70
2018-07-07T03:30:53.089Z,72.50
2018-07-07T03:33:21.465Z,72.80
2018-07-07T03:35:49.794Z,73.60
2018-07-07T03:38:18.183Z,73.00
2018-07-07T03:40:46.541Z,73.10
2018-07-07T03:43:15.365Z,74.00
2018-07-07T03:45:43.716Z,74.90
2018-07-07T03:48:12.088Z,74.90
2018-07-07T03:50:40.470Z,75.40
2018-07-07T03:53:08.878Z,75.40
2018-07-07T03:55:37.298Z,75.50
2018-07-07T03:58:05.684Z,76.10
2018-07-07T04:00:34.051Z,75.90
2018-07-07T04:03:02.468Z,76.10
2018-07-07T04:05:30.981Z,76.30
2018-07-07T04:07:59.349Z,76.40
2018-07-07T04:10:27.690Z,76.30
2018-07-07T04:12:56.045Z,75.70
2018-07-07T04:15:24.543Z,75.70
2018-07-07T04:17:52.905Z,75.40
2018-07-07T04:20:21.260Z,74.90
2018-07-07T04:22:49.757Z,74.50
2018-07-07T04:25:18.152Z,74.30
2018-07-07T04:27:46.507Z,73.90
2018-07-07T04:30:14.924Z,73.60
2018-07-07T04:32:43.538Z,73.00
2018-07-07T04:35:11.996Z,72.80
2018-07-07T04:37:40.394Z,72.30
2018-07-07T04:40:08.753Z,71.90
2018-07-07T04:42:37.131Z,71.60
2018-07-07T04:47:33.602Z,70.90
2018-07-07T04:50:01.950Z,70.40
2018-07-07T04:52:30.392Z,70.00
2018-07-07T04:54:58.690Z,69.70
2018-07-07T04:57:27.084Z,69.70
2018-07-07T04:59:55.441Z,69.40
2018-07-07T05:02:23.814Z,69.30
2018-07-07T05:04:52.204Z,69.10
2018-07-07T05:07:20.561Z,68.80
2018-07-07T05:09:48.906Z,68.60
2018-07-07T05:12:17.304Z,68.20
2018-07-07T05:14:45.718Z,67.80
2018-07-07T05:17:14.135Z,67.20
2018-07-07T05:19:42.534Z,66.70
2018-07-07T05:22:11.207Z,66.20
2018-07-07T05:24:39.560Z,65.80
2018-07-07T05:27:07.913Z,65.50
2018-07-07T05:29:36.293Z,65.10
2018-07-07T05:32:04.723Z,64.50
2018-07-07T05:34:33.049Z,64.20
2018-07-07T05:37:01.386Z,63.80
2018-07-07T05:39:29.806Z,63.40
2018-07-07T05:41:58.155Z,63.00
2018-07-07T05:44:26.532Z,62.30
2018-07-07T05:46:55.251Z,61.60
2018-07-07T05:49:23.631Z,61.20
2018-07-07T05:51:51.976Z,60.60
2018-07-07T05:54:20.333Z,60.00
2018-07-07T05:56:48.694Z,59.50
2018-07-07T05:59:17.090Z,58.80
2018-07-07T06:01:45.442Z,58.30
2018-07-07T06:04:13.797Z,57.40
2018-07-07T06:06:42.202Z,56.50
2018-07-07T06:09:10.597Z,56.60
2018-07-07T06:11:39.210Z,56.20
2018-07-07T06:14:07.636Z,56.40
2018-07-07T06:16:35.978Z,56.60
2018-07-07T06:19:04.437Z,56.40
2018-07-07T06:21:32.854Z,56.90
2018-07-07T06:24:01.227Z,56.90
2018-07-07T06:26:29.638Z,56.80
2018-07-07T06:28:58.148Z,56.60
2018-07-07T06:31:26.660Z,56.40
2018-07-07T06:33:55.029Z,56.40
2018-07-07T06:36:23.381Z,55.90
2018-07-07T06:38:51.759Z,55.50
2018-07-07T06:41:20.114Z,55.10
2018-07-07T06:43:48.900Z,54.30
2018-07-07T06:46:17.185Z,53.70
2018-07-07T06:48:45.550Z,53.40
2018-07-07T06:51:13.954Z,53.40
2018-07-07T06:53:42.560Z,53.30
2018-07-07T06:56:10.878Z,52.90
2018-07-07T06:58:39.344Z,52.60
2018-07-07T07:01:07.754Z,52.70
2018-07-07T07:03:36.105Z,52.40
2018-07-07T07:08:32.762Z,52.80
2018-07-07T07:11:02.059Z,53.00
2018-07-07T07:13:30.442Z,52.60
2018-07-07T07:15:59.085Z,52.20
2018-07-07T07:18:27.417Z,52.00
2018-07-07T07:20:55.825Z,51.90
2018-07-07T07:23:24.182Z,51.40
2018-07-07T07:25:52.986Z,51.00
2018-07-07T07:28:21.488Z,50.80
2018-07-07T07:30:49.902Z,51.00
2018-07-07T07:33:18.285Z,50.90
2018-07-07T07:35:46.736Z,50.80
2018-07-07T07:38:16.104Z,50.70
2018-07-07T07:40:44.504Z,50.70
2018-07-07T07:43:12.928Z,50.50
2018-07-07T07:45:41.342Z,50.30
2018-07-07T07:48:09.731Z,49.90
2018-07-07T07:50:38.082Z,49.10
2018-07-07T07:53:06.600Z,48.60
2018-07-07T07:55:35.013Z,48.00
2018-07-07T07:58:03.393Z,47.70
2018-07-07T08:00:31.778Z,47.40
2018-07-07T08:03:00.124Z,47.60
2018-07-07T08:05:28.567Z,47.20
2018-07-07T08:07:57.109Z,47.00
2018-07-07T08:10:25.609Z,46.60
2018-07-07T08:12:54.022Z,46.50
2018-07-07T08:15:22.393Z,46.30
2018-07-07T08:17:50.938Z,46.50
2018-07-07T08:20:19.303Z,46.00
2018-07-07T08:22:47.734Z,46.10
2018-07-07T08:25:16.162Z,45.90
2018-07-07T08:27:44.561Z,45.90
2018-07-07T08:30:12.961Z,45.70
2018-07-07T08:32:41.374Z,45.50
2018-07-07T08:35:09.814Z,45.90
2018-07-07T08:37:38.423Z,46.20
2018-07-07T08:40:06.878Z,46.00
2018-07-07T08:42:35.339Z,46.20
2018-07-07T08:45:04.772Z,46.00
2018-07-07T08:47:34.165Z,45.70
2018-07-07T08:50:02.548Z,45.70
2018-07-07T08:52:30.906Z,45.60
2018-07-07T08:54:59.379Z,45.50
2018-07-07T08:57:28.041Z,45.70
2018-07-07T08:59:56.573Z,45.60
2018-07-07T09:02:24.966Z,45.90
2018-07-07T09:04:53.398Z,46.10
2018-07-07T09:07:21.884Z,46.60
2018-07-07T09:09:50.397Z,46.90
2018-07-07T09:12:18.893Z,46.60
2018-07-07T09:14:47.333Z,47.10
2018-07-07T09:17:15.709Z,47.20
2018-07-07T09:19:44.127Z,47.20
2018-07-07T09:22:12.494Z,46.90
2018-07-07T09:24:40.889Z,47.30
2018-07-07T09:27:09.287Z,46.40
2018-07-07T09:29:37.614Z,46.10
2018-07-07T09:32:06.042Z,45.20
2018-07-07T09:34:34.559Z,44.60
2018-07-07T09:37:09.658Z,44.50
2018-07-07T09:39:38.033Z,43.40
2018-07-07T09:42:06.481Z,43.20
2018-07-07T09:44:34.862Z,43.70
2018-07-07T09:47:03.295Z,43.30
2018-07-07T09:49:31.667Z,43.30
2018-07-07T09:52:00.090Z,41.70
2018-07-07T09:54:29.516Z,41.60
2018-07-07T09:56:57.988Z,41.60
2018-07-07T09:59:26.367Z,41.60
2018-07-07T10:01:54.827Z,41.80
2018-07-07T10:04:23.206Z,41.70
2018-07-07T10:06:52.614Z,41.10
2018-07-07T10:09:21.021Z,40.10
2018-07-07T10:11:49.663Z,40.20
2018-07-07T10:14:18.238Z,39.40
2018-07-07T10:19:15.074Z,38.30
2018-07-07T10:21:43.498Z,37.60
2018-07-07T10:24:11.859Z,37.10
2018-07-07T10:26:40.262Z,36.80
2018-07-07T10:29:08.757Z,36.10
2018-07-07T10:31:37.296Z,36.20
2018-07-07T10:34:05.822Z,35.70
2018-07-07T10:36:34.170Z,35.30
2018-07-07T10:39:02.652Z,35.20
2018-07-07T10:41:30.982Z,34.60
2018-07-07T10:43:59.914Z,34.10
2018-07-07T10:46:28.328Z,34.70
2018-07-07T10:48:56.805Z,34.50
2018-07-07T10:51:25.189Z,33.80
2018-07-07T10:53:53.566Z,33.40
2018-07-07T10:56:21.926Z,33.00
2018-07-07T10:58:50.341Z,31.70
2018-07-07T11:01:18.740Z,31.40
2018-07-07T11:03:47.185Z,30.50
2018-07-07T11:06:15.657Z,31.70
2018-07-07T11:08:44.171Z,31.40
2018-07-07T11:11:12.565Z,30.70
2018-07-07T11:13:41.033Z,30.90
2018-07-07T11:16:09.483Z,30.60
2018-07-07T11:18:38.014Z,30.80
2018-07-07T11:21:06.534Z,29.50
2018-07-07T11:23:34.921Z,29.60
2018-07-07T11:26:03.361Z,29.10
2018-07-07T11:28:31.968Z,29.00
2018-07-07T11:31:00.440Z,29.30
2018-07-07T11:33:28.822Z,29.10
2018-07-07T11:38:25.337Z,29.00
2018-07-07T11:40:53.761Z,29.20
2018-07-07T11:43:22.170Z,28.50
2018-07-07T11:45:50.884Z,28.20
2018-07-07T11:48:22.280Z,27.90
2018-07-07T11:50:50.647Z,28.30
2018-07-07T11:53:19.047Z,28.00
2018-07-07T11:55:47.444Z,27.60
2018-07-07T11:58:15.928Z,27.80
2018-07-07T12:00:44.366Z,29.00
2018-07-07T12:03:12.773Z,29.60
2018-07-07T12:05:41.183Z,29.20
2018-07-07T12:08:13.989Z,28.30
2018-07-07T12:10:38.039Z,27.60
2018-07-07T12:13:06.522Z,27.40
2018-07-07T12:15:35.000Z,26.10
2018-07-07T12:18:03.379Z,26.10
2018-07-07T12:20:31.829Z,25.70
2018-07-07T12:23:00.219Z,26.20
2018-07-07T12:25:28.754Z,26.50
2018-07-07T12:27:57.194Z,25.60
2018-07-07T12:30:25.597Z,25.60
2018-07-07T12:32:53.961Z,25.10
2018-07-07T12:35:22.325Z,24.80
2018-07-07T12:37:50.704Z,24.40
2018-07-07T12:40:19.066Z,24.00
2018-07-07T12:42:47.475Z,23.20
2018-07-07T12:47:44.103Z,22.60
2018-07-07T12:50:12.505Z,21.80
2018-07-07T12:52:40.886Z,22.30
2018-07-07T12:55:09.253Z,23.30
2018-07-07T12:57:37.941Z,23.30
2018-07-07T13:00:06.495Z,22.90
2018-07-07T13:02:34.937Z,22.20
2018-07-07T13:05:03.373Z,22.30
2018-07-07T13:07:31.753Z,22.20
2018-07-07T13:10:00.180Z,21.60
2018-07-07T13:12:28.549Z,21.60
2018-07-07T13:14:56.956Z,20.90
2018-07-07T13:17:25.461Z,21.10
2018-07-07T13:19:53.913Z,21.00
2018-07-07T13:22:22.296Z,20.90
2018-07-07T13:24:50.709Z,20.30
2018-07-07T13:27:20.018Z,19.70
2018-07-07T13:29:48.461Z,19.80
2018-07-07T13:32:16.859Z,20.20
2018-07-07T13:34:45.331Z,20.70
2018-07-07T13:37:13.707Z,22.40
2018-07-07T13:39:42.819Z,23.30
2018-07-07T13:42:12.306Z,23.80
2018-07-07T13:44:41.127Z,24.40
2018-07-07T13:47:09.831Z,24.70
2018-07-07T13:49:38.842Z,24.60
2018-07-07T13:52:07.617Z,25.10
2018-07-07T13:54:36.250Z,26.40
2018-07-07T13:59:33.414Z,24.50
2018-07-07T14:02:01.794Z,24.50
2018-07-07T14:04:30.229Z,25.60
2018-07-07T14:06:58.609Z,26.40
2018-07-07T14:09:27.106Z,27.40
2018-07-07T14:11:55.500Z,28.40
2018-07-07T14:16:52.052Z,29.20
2018-07-07T14:19:20.459Z,29.70
2018-07-07T14:21:48.907Z,29.30
2018-07-07T14:24:17.340Z,28.20
2018-07-07T14:26:45.751Z,26.20
2018-07-07T14:29:14.143Z,25.80
2018-07-07T14:31:42.574Z,25.50
2018-07-07T14:34:10.923Z,24.50
2018-07-07T14:36:39.330Z,23.60
2018-07-07T14:39:07.854Z,23.30
2018-07-07T14:41:36.274Z,23.20
2018-07-07T14:44:05.278Z,23.20
2018-07-07T14:46:34.742Z,22.90
2018-07-07T14:49:03.185Z,22.10
2018-07-07T14:51:32.302Z,21.20
2018-07-07T14:54:01.150Z,20.10
2018-07-07T14:57:33.233Z,19.30
2018-07-07T15:00:01.593Z,19.20
2018-07-07T15:02:30.034Z,19.20
2018-07-07T15:04:58.666Z,19.30
2018-07-07T15:07:27.528Z,19.40
2018-07-07T15:09:56.387Z,20.40
2018-07-07T15:12:25.014Z,21.80
2018-07-07T15:14:53.644Z,22.90
2018-07-07T15:17:23.662Z,22.70
2018-07-07T15:19:52.202Z,22.00
2018-07-07T15:22:20.611Z,21.30
2018-07-07T15:24:49.005Z,21.30
2018-07-07T15:27:17.604Z,20.80
2018-07-07T15:29:46.394Z,20.30
2018-07-07T15:32:14.982Z,19.30
2018-07-07T15:34:43.785Z,19.10
2018-07-07T15:37:12.425Z,18.80
2018-07-07T15:39:40.892Z,18.20
2018-07-07T15:42:09.419Z,17.50
2018-07-07T15:44:38.172Z,17.80
2018-07-07T15:47:06.866Z,17.60
2018-07-07T15:49:35.309Z,18.00
2018-07-07T15:52:03.915Z,18.00
2018-07-07T15:54:32.385Z,17.80
2018-07-07T15:57:01.051Z,18.00
2018-07-07T15:59:29.663Z,18.00
2018-07-07T16:01:58.072Z,17.60
2018-07-07T16:04:26.428Z,17.50
2018-07-07T16:06:54.814Z,17.80
2018-07-07T16:09:23.353Z,17.70
2018-07-07T16:11:51.735Z,17.70
2018-07-07T16:14:20.146Z,17.60
2018-07-07T16:16:48.525Z,17.90
2018-07-07T16:19:16.907Z,17.70
2018-07-07T16:21:45.299Z,18.00
2018-07-07T16:24:13.727Z,18.50
2018-07-07T16:26:42.102Z,19.60
2018-07-07T16:29:10.526Z,20.90
2018-07-07T16:31:38.897Z,21.30
2018-07-07T16:34:07.506Z,20.80
2018-07-07T16:36:35.985Z,20.30
2018-07-07T16:39:05.153Z,21.20
2018-07-07T16:41:34.177Z,22.40
2018-07-07T16:44:03.177Z,23.80
2018-07-07T16:46:32.784Z,23.60
2018-07-07T16:49:02.311Z,23.00
2018-07-07T16:53:58.895Z,21.70
2018-07-07T16:56:27.405Z,21.10
2018-07-07T17:01:24.928Z,20.40
2018-07-07T17:03:53.474Z,20.50
2018-07-07T17:06:21.904Z,20.50
2018-07-07T17:08:50.722Z,20.70
2018-07-07T17:11:19.134Z,21.60
2018-07-07T17:13:47.715Z,21.90
2018-07-07T17:16:16.262Z,22.80
2018-07-07T17:21:12.767Z,25.80
2018-07-07T17:23:41.385Z,27.30
2018-07-07T17:26:09.823Z,27.70
2018-07-07T17:31:06.714Z,26.40
2018-07-07T17:33:35.153Z,25.60
2018-07-07T17:36:03.582Z,24.90
2018-07-07T17:38:32.064Z,24.50
2018-07-07T17:41:00.814Z,24.30
2018-07-07T17:43:29.665Z,24.20
2018-07-07T17:45:58.714Z,23.80
2018-07-07T17:48:27.845Z,23.80
2018-07-07T17:50:56.266Z,23.90
2018-07-07T17:53:24.916Z,24.00
2018-07-07T17:55:53.509Z,24.70
2018-07-07T17:58:22.622Z,25.00
2018-07-07T18:00:51.085Z,25.00
2018-07-07T18:03:19.685Z,25.40
2018-07-07T18:08:16.360Z,25.60
2018-07-07T18:10:44.764Z,25.60
2018-07-07T18:13:13.258Z,26.50
2018-07-07T18:15:41.634Z,26.60
2018-07-07T18:18:10.065Z,27.00
2018-07-07T18:20:38.531Z,28.10
2018-07-07T18:23:06.929Z,27.80
2018-07-07T18:25:35.306Z,28.30
2018-07-07T18:28:03.714Z,28.60
2018-07-07T18:30:32.229Z,28.80
2018-07-07T18:33:00.686Z,28.70
2018-07-07T18:35:29.110Z,28.70
2018-07-07T18:37:57.605Z,28.60
2018-07-07T18:40:25.966Z,28.50
2018-07-07T18:42:54.328Z,28.70
2018-07-07T18:45:22.753Z,28.90
2018-07-07T18:47:52.879Z,29.00
2018-07-07T18:50:21.345Z,29.40
2018-07-07T18:52:49.757Z,30.00
2018-07-07T18:55:18.174Z,30.80
2018-07-07T19:00:14.785Z,31.70
2018-07-07T19:02:43.184Z,31.80
2018-07-07T19:05:11.636Z,31.60
2018-07-07T19:07:40.075Z,32.10
2018-07-07T19:10:08.498Z,32.40
2018-07-07T19:12:36.902Z,33.00
2018-07-07T19:15:10.753Z,33.40
2018-07-07T19:17:39.126Z,33.80
2018-07-07T19:20:07.665Z,34.40
2018-07-07T19:22:41.365Z,35.30
2018-07-07T19:25:15.280Z,35.60
2018-07-07T19:27:43.894Z,36.00
2018-07-07T19:30:12.382Z,36.60
2018-07-07T19:32:46.192Z,37.00
2018-07-07T19:35:20.112Z,37.00
2018-07-07T19:37:48.883Z,37.00
2018-07-07T19:40:17.730Z,36.90
2018-07-07T19:42:48.860Z,37.00
2018-07-07T19:45:17.686Z,37.10
2018-07-07T19:47:46.547Z,37.30
2018-07-07T19:50:15.108Z,37.60
2018-07-07T19:52:43.647Z,38.00
2018-07-07T19:55:12.387Z,38.20
2018-07-07T19:57:40.877Z,38.40
2018-07-07T20:00:09.448Z,38.50
2018-07-07T20:02:38.882Z,38.70
2018-07-07T20:05:07.399Z,38.80
2018-07-07T20:07:38.338Z,38.90
2018-07-07T20:10:06.952Z,39.00
2018-07-07T20:12:35.441Z,39.20
2018-07-07T20:15:04.054Z,39.20
2018-07-07T20:18:08.847Z,39.50
2018-07-07T20:20:42.649Z,39.50
2018-07-07T20:23:12.621Z,39.80
2018-07-07T20:25:41.086Z,40.00
2018-07-07T20:28:15.023Z,40.00
2018-07-07T20:30:43.718Z,40.10
2018-07-07T20:33:12.247Z,40.20
2018-07-07T20:35:40.683Z,40.40
2018-07-07T20:38:09.299Z,40.50
2018-07-07T20:40:38.080Z,40.60
2018-07-07T20:43:06.593Z,40.90
2018-07-07T20:45:35.248Z,41.00
2018-07-07T20:48:04.421Z,41.10
2018-07-07T20:50:32.888Z,41.10
2018-07-07T20:53:01.429Z,41.10
2018-07-07T20:55:30.074Z,41.30
2018-07-07T20:57:58.722Z,41.40
2018-07-07T21:00:27.305Z,41.60
2018-07-07T21:02:55.910Z,41.70
2018-07-07T21:05:24.462Z,41.80
2018-07-07T21:07:53.359Z,42.10
2018-07-07T21:10:24.643Z,42.20
2018-07-07T21:12:53.140Z,42.40
2018-07-07T21:15:21.906Z,42.70
2018-07-07T21:17:50.382Z,42.90
2018-07-07T21:20:18.750Z,42.90
2018-07-07T21:22:47.247Z,43.10
2018-07-07T21:25:15.662Z,43.40
2018-07-07T21:27:44.103Z,43.60
2018-07-07T21:30:12.733Z,43.70
2018-07-07T21:32:41.126Z,43.80
2018-07-07T21:35:09.515Z,44.20
2018-07-07T21:37:37.899Z,44.30
2018-07-07T21:40:06.330Z,44.50
2018-07-07T21:42:34.707Z,44.70
2018-07-07T21:45:03.187Z,44.70
2018-07-07T21:47:31.769Z,45.00
2018-07-07T21:50:00.211Z,45.20
2018-07-07T21:52:28.823Z,45.50
2018-07-07T21:54:57.242Z,46.00
2018-07-07T21:57:30.979Z,46.20
2018-07-07T21:59:59.433Z,46.30
2018-07-07T22:02:33.242Z,46.50
2018-07-07T22:07:39.257Z,46.60
2018-07-07T22:10:08.288Z,46.80
2018-07-07T22:12:36.749Z,47.20
2018-07-07T22:15:05.353Z,47.30
2018-07-07T22:17:33.709Z,47.60
2018-07-07T22:20:02.232Z,47.60
2018-07-07T22:22:30.633Z,47.90
2018-07-07T22:24:59.085Z,48.00
2018-07-07T22:27:27.462Z,48.10
2018-07-07T22:29:55.914Z,48.00
2018-07-07T22:32:24.628Z,48.50
2018-07-07T22:34:53.391Z,48.50
2018-07-07T22:39:49.941Z,48.70
2018-07-07T22:42:19.442Z,49.00
2018-07-07T22:44:48.876Z,49.20
2018-07-07T22:47:17.246Z,49.70
2018-07-07T22:49:45.690Z,49.80
2018-07-07T22:52:14.087Z,50.20
2018-07-07T22:54:42.479Z,50.30
2018-07-07T22:57:10.871Z,50.50
2018-07-07T22:59:39.257Z,50.80
2018-07-07T23:02:13.937Z,51.00
2018-07-07T23:04:42.383Z,51.10
2018-07-07T23:07:10.772Z,51.30
2018-07-07T23:12:07.288Z,51.30
2018-07-07T23:14:35.682Z,51.40
2018-07-07T23:17:04.151Z,51.60
2018-07-07T23:19:32.490Z,51.90
2018-07-07T23:22:00.920Z,51.70
2018-07-07T23:26:58.253Z,51.40
2018-07-07T23:29:26.813Z,51.40
2018-07-07T23:31:55.315Z,51.50
2018-07-07T23:34:23.698Z,51.60
2018-07-07T23:36:52.059Z,51.60
2018-07-07T23:39:20.446Z,51.60
2018-07-07T23:41:48.797Z,51.60
2018-07-07T23:44:17.134Z,51.70
2018-07-07T23:46:45.517Z,51.90
2018-07-07T23:49:13.916Z,52.00
2018-07-07T23:51:42.398Z,51.90
2018-07-07T23:54:10.750Z,52.00
2018-07-07T23:56:39.263Z,52.10
2018-07-07T23:59:07.794Z,52.30
